createdAt,value
2018-03-17T00:01:18.209Z,50.43
2018-03-17T00:03:46.656Z,44.00
2018-03-17T00:06:14.248Z,46.40
2018-03-17T00:08:41.813Z,50.87
2018-03-17T00:11:09.403Z,52.20
2018-03-17T00:13:37.008Z,46.77
2018-03-17T00:16:04.564Z,46.33
2018-03-17T00:18:32.117Z,46.60
2018-03-17T00:20:59.712Z,41.67
2018-03-17T00:23:27.268Z,40.37
2018-03-17T00:25:54.851Z,43.40
2018-03-17T00:28:22.395Z,39.40
2018-03-17T00:30:49.987Z,46.23
2018-03-17T00:33:17.583Z,44.87
2018-03-17T00:35:45.133Z,48.73
2018-03-17T00:38:12.719Z,43.53
2018-03-17T00:40:40.316Z,45.73
2018-03-17T00:43:07.912Z,43.27
2018-03-17T00:45:35.889Z,47.67
2018-03-17T00:48:03.439Z,42.00
2018-03-17T00:50:31.060Z,45.23
2018-03-17T00:52:58.607Z,43.90
2018-03-17T00:55:26.200Z,38.60
2018-03-17T00:57:53.852Z,42.67
2018-03-17T01:00:21.451Z,41.90
2018-03-17T01:02:49.058Z,41.67
2018-03-17T01:05:16.617Z,42.80
2018-03-17T01:07:44.203Z,46.67
2018-03-17T01:10:12.394Z,46.20
2018-03-17T01:12:39.975Z,48.50
2018-03-17T01:15:07.741Z,56.33
2018-03-17T01:17:35.506Z,46.03
2018-03-17T01:20:03.056Z,46.43
2018-03-17T01:22:31.588Z,48.90
2018-03-17T01:24:59.135Z,49.97
2018-03-17T01:27:27.253Z,49.23
2018-03-17T01:29:55.419Z,56.03
2018-03-17T01:32:22.967Z,48.03
2018-03-17T01:34:50.514Z,54.17
2018-03-17T01:37:18.365Z,48.00
2018-03-17T01:39:45.919Z,51.17
2018-03-17T01:42:13.472Z,48.40
2018-03-17T01:44:41.069Z,49.60
2018-03-17T01:47:08.660Z,46.13
2018-03-17T01:49:36.207Z,41.40
2018-03-17T01:52:04.334Z,46.63
2018-03-17T01:54:31.974Z,90.73
2018-03-17T01:56:59.599Z,55.67
2018-03-17T01:59:27.171Z,78.13
2018-03-17T02:01:54.762Z,53.70
2018-03-17T02:04:22.321Z,52.10
2018-03-17T02:06:50.020Z,57.67
2018-03-17T02:09:17.603Z,50.57
2018-03-17T02:11:46.183Z,48.37
2018-03-17T02:14:14.149Z,44.40
2018-03-17T02:16:41.744Z,49.03
2018-03-17T02:19:09.345Z,52.60
2018-03-17T02:21:36.922Z,49.70
2018-03-17T02:24:04.482Z,48.97
2018-03-17T02:26:32.396Z,48.07
2018-03-17T02:28:59.991Z,50.93
2018-03-17T02:31:27.544Z,49.20
2018-03-17T02:33:55.112Z,50.87
2018-03-17T02:36:22.698Z,52.23
2018-03-17T02:38:50.246Z,58.20
2018-03-17T02:41:17.835Z,48.43
2018-03-17T02:43:45.392Z,59.30
2018-03-17T02:46:13.250Z,64.47
2018-03-17T02:48:40.805Z,52.87
2018-03-17T02:51:08.390Z,59.23
2018-03-17T02:53:35.946Z,64.43
2018-03-17T02:56:03.535Z,70.87
2018-03-17T02:58:31.128Z,56.80
2018-03-17T03:00:58.675Z,66.63
2018-03-17T03:03:26.232Z,56.63
2018-03-17T03:05:53.828Z,56.57
2018-03-17T03:08:21.423Z,53.87
2018-03-17T03:10:48.975Z,60.87
2018-03-17T03:13:16.562Z,53.60
2018-03-17T03:15:44.120Z,63.30
2018-03-17T03:18:11.675Z,58.23
2018-03-17T03:20:39.288Z,65.57
2018-03-17T03:23:06.881Z,71.03
2018-03-17T03:25:34.431Z,75.20
2018-03-17T03:28:02.149Z,73.53
2018-03-17T03:30:30.457Z,71.60
2018-03-17T03:32:58.004Z,64.10
2018-03-17T03:35:25.560Z,65.70
2018-03-17T03:37:53.160Z,66.93
2018-03-17T03:40:20.764Z,61.73
2018-03-17T03:42:48.708Z,64.00
2018-03-17T03:45:16.586Z,63.63
2018-03-17T03:47:44.154Z,61.57
2018-03-17T03:50:12.030Z,70.43
2018-03-17T03:52:39.570Z,68.63
2018-03-17T03:55:07.155Z,71.77
2018-03-17T03:57:34.765Z,56.33
2018-03-17T04:00:02.324Z,66.13
2018-03-17T04:02:29.947Z,58.70
2018-03-17T04:04:57.488Z,59.80
2018-03-17T04:07:25.061Z,58.80
2018-03-17T04:09:52.617Z,61.40
2018-03-17T04:12:20.201Z,61.57
2018-03-17T04:14:47.739Z,61.77
2018-03-17T04:17:15.331Z,58.97
2018-03-17T04:19:42.885Z,52.77
2018-03-17T04:22:10.757Z,55.23
2018-03-17T04:24:38.897Z,55.73
2018-03-17T04:27:06.486Z,53.63
2018-03-17T04:29:34.065Z,56.10
2018-03-17T04:32:02.091Z,53.97
2018-03-17T04:34:29.627Z,58.90
2018-03-17T04:36:57.217Z,54.33
2018-03-17T04:39:25.265Z,55.67
2018-03-17T04:41:52.847Z,54.23
2018-03-17T04:44:20.437Z,53.83
2018-03-17T04:46:48.077Z,60.43
2018-03-17T04:49:15.870Z,58.00
2018-03-17T04:51:43.461Z,61.90
2018-03-17T04:54:11.056Z,60.17
2018-03-17T04:56:38.595Z,65.80
2018-03-17T04:59:06.183Z,54.73
2018-03-17T05:01:33.741Z,64.10
2018-03-17T05:04:01.356Z,66.77
2018-03-17T05:06:29.410Z,73.97
2018-03-17T05:08:56.972Z,56.07
2018-03-17T05:11:25.310Z,65.63
2018-03-17T05:13:52.892Z,57.93
2018-03-17T05:16:20.501Z,57.87
2018-03-17T05:18:48.109Z,56.17
2018-03-17T05:21:15.656Z,59.00
2018-03-17T05:23:43.217Z,56.67
2018-03-17T05:26:10.813Z,60.07
2018-03-17T05:28:38.377Z,59.73
2018-03-17T05:31:05.980Z,57.67
2018-03-17T05:33:33.832Z,57.23
2018-03-17T05:36:01.947Z,59.00
2018-03-17T05:38:29.561Z,58.83
2018-03-17T05:40:57.173Z,61.57
2018-03-17T05:43:24.748Z,113.60
2018-03-17T05:45:52.364Z,74.33
2018-03-17T05:48:19.955Z,148.20
2018-03-17T05:50:47.509Z,95.60
2018-03-17T05:53:15.111Z,133.17
2018-03-17T05:55:42.947Z,85.23
2018-03-17T05:58:10.533Z,84.43
2018-03-17T06:00:38.659Z,82.97
2018-03-17T06:03:06.224Z,79.63
2018-03-17T06:05:33.784Z,67.37
2018-03-17T06:08:01.376Z,60.97
2018-03-17T06:10:28.918Z,59.57
2018-03-17T06:12:56.521Z,57.57
2018-03-17T06:15:24.119Z,53.43
2018-03-17T06:17:51.662Z,59.00
2018-03-17T06:20:19.387Z,60.83
2018-03-17T06:22:46.987Z,203.27
2018-03-17T06:25:15.096Z,84.80
2018-03-17T06:27:42.695Z,68.40
2018-03-17T06:30:12.244Z,71.20
2018-03-17T06:32:39.840Z,80.47
2018-03-17T06:35:07.405Z,78.53
2018-03-17T06:37:35.001Z,66.63
2018-03-17T06:40:02.552Z,54.17
2018-03-17T06:42:30.169Z,54.33
2018-03-17T06:44:58.171Z,60.00
2018-03-17T06:47:26.500Z,60.87
2018-03-17T06:49:54.084Z,63.63
2018-03-17T06:52:23.315Z,101.47
2018-03-17T06:54:50.926Z,56.57
2018-03-17T06:57:18.608Z,49.73
2018-03-17T06:59:47.269Z,60.30
2018-03-17T07:02:14.864Z,89.33
2018-03-17T07:04:43.632Z,74.43
2018-03-17T07:07:11.227Z,59.33
2018-03-17T07:09:40.123Z,62.63
2018-03-17T07:12:08.672Z,54.37
2018-03-17T07:14:36.274Z,53.27
2018-03-17T07:17:03.889Z,60.77
2018-03-17T07:19:31.441Z,44.43
2018-03-17T07:21:59.028Z,42.67
2018-03-17T07:24:27.488Z,46.00
2018-03-17T07:26:55.437Z,39.27
2018-03-17T07:29:22.984Z,43.17
2018-03-17T07:31:50.535Z,37.70
2018-03-17T07:34:18.644Z,40.63
2018-03-17T07:36:46.202Z,34.27
2018-03-17T07:39:13.820Z,36.83
2018-03-17T07:41:41.736Z,38.73
2018-03-17T07:44:09.805Z,31.47
2018-03-17T07:46:37.357Z,33.40
2018-03-17T07:49:05.516Z,34.63
2018-03-17T07:51:33.101Z,31.47
2018-03-17T07:54:00.691Z,30.50
2018-03-17T07:56:28.240Z,28.30
2018-03-17T07:58:55.836Z,29.90
2018-03-17T08:01:23.397Z,32.73
2018-03-17T08:03:51.809Z,33.07
2018-03-17T08:06:19.647Z,26.73
2018-03-17T08:08:47.197Z,32.07
2018-03-17T08:11:14.904Z,28.63
2018-03-17T08:13:42.978Z,24.73
2018-03-17T08:16:10.577Z,19.83
2018-03-17T08:18:39.067Z,25.13
2018-03-17T08:21:06.628Z,21.17
2018-03-17T08:23:34.222Z,21.90
2018-03-17T08:26:01.786Z,24.03
2018-03-17T08:28:29.387Z,20.77
2018-03-17T08:30:56.949Z,20.87
2018-03-17T08:33:24.499Z,17.90
2018-03-17T08:35:53.287Z,21.13
2018-03-17T08:38:21.076Z,20.10
2018-03-17T08:40:48.800Z,17.73
2018-03-17T08:43:17.536Z,19.00
2018-03-17T08:45:45.097Z,18.43
2018-03-17T08:48:13.286Z,17.63
2018-03-17T08:50:40.841Z,19.27
2018-03-17T08:53:09.467Z,19.23
2018-03-17T08:55:37.000Z,18.03
2018-03-17T08:58:04.592Z,24.23
2018-03-17T09:00:32.200Z,20.83
2018-03-17T09:02:59.801Z,17.10
2018-03-17T09:05:30.010Z,25.93
2018-03-17T09:07:57.561Z,23.43
2018-03-17T09:10:25.990Z,20.10
2018-03-17T09:12:53.973Z,19.67
2018-03-17T09:15:23.220Z,19.30
2018-03-17T09:17:51.184Z,19.07
2018-03-17T09:20:19.249Z,16.07
2018-03-17T09:22:46.844Z,22.17
2018-03-17T09:25:14.450Z,36.07
2018-03-17T09:27:42.373Z,27.10
2018-03-17T09:30:09.954Z,25.53
2018-03-17T09:32:37.499Z,22.27
2018-03-17T09:35:05.091Z,28.33
2018-03-17T09:37:32.639Z,23.97
2018-03-17T09:40:00.249Z,22.20
2018-03-17T09:42:27.799Z,18.87
2018-03-17T09:44:55.757Z,22.33
2018-03-17T09:47:23.364Z,30.87
2018-03-17T09:49:50.921Z,26.93
2018-03-17T09:52:18.585Z,24.53
2018-03-17T09:54:46.158Z,27.13
2018-03-17T09:57:13.748Z,25.33
2018-03-17T09:59:41.313Z,28.07
2018-03-17T10:02:08.904Z,29.97
2018-03-17T10:04:37.004Z,26.93
2018-03-17T10:07:05.413Z,23.97
2018-03-17T10:09:32.977Z,27.47
2018-03-17T10:12:00.572Z,21.50
2018-03-17T10:14:28.623Z,26.67
2018-03-17T10:16:56.212Z,26.60
2018-03-17T10:19:23.817Z,25.27
2018-03-17T10:21:51.363Z,20.37
2018-03-17T10:24:18.956Z,20.53
2018-03-17T10:26:47.413Z,23.83
2018-03-17T10:29:14.973Z,19.77
2018-03-17T10:31:43.391Z,25.10
2018-03-17T10:34:10.970Z,21.60
2018-03-17T10:36:38.568Z,22.83
2018-03-17T10:39:07.456Z,22.33
2018-03-17T10:41:36.012Z,24.57
2018-03-17T10:44:03.593Z,23.63
2018-03-17T10:46:31.186Z,21.30
2018-03-17T10:48:58.746Z,22.83
2018-03-17T10:51:26.357Z,22.67
2018-03-17T10:53:53.900Z,22.93
2018-03-17T10:56:21.533Z,22.80
2018-03-17T10:58:49.152Z,20.17
2018-03-17T11:01:20.515Z,22.23
2018-03-17T11:03:48.811Z,19.87
2018-03-17T11:06:16.459Z,18.67
2018-03-17T11:08:44.390Z,17.00
2018-03-17T11:11:12.815Z,24.70
2018-03-17T11:13:40.372Z,23.50
2018-03-17T11:16:07.971Z,21.03
2018-03-17T11:18:35.533Z,22.67
2018-03-17T11:21:03.124Z,24.60
2018-03-17T11:23:31.705Z,24.17
2018-03-17T11:26:00.139Z,21.40
2018-03-17T11:28:27.691Z,21.13
2018-03-17T11:30:55.260Z,23.90
2018-03-17T11:33:22.865Z,29.93
2018-03-17T11:35:50.451Z,23.90
2018-03-17T11:38:18.022Z,22.70
2018-03-17T11:40:45.688Z,20.37
2018-03-17T11:43:13.229Z,21.37
2018-03-17T11:45:40.788Z,22.80
2018-03-17T11:48:08.524Z,21.23
2018-03-17T11:50:36.084Z,21.67
2018-03-17T11:53:03.671Z,21.50
2018-03-17T11:55:31.289Z,18.47
2018-03-17T11:57:58.837Z,19.43
2018-03-17T12:00:26.424Z,21.23
2018-03-17T12:02:55.346Z,16.50
2018-03-17T12:05:23.782Z,21.90
2018-03-17T12:07:51.374Z,20.33
2018-03-17T12:10:19.037Z,19.57
2018-03-17T12:12:46.877Z,20.40
2018-03-17T12:15:14.428Z,20.73
2018-03-17T12:17:42.915Z,20.23
2018-03-17T12:20:10.500Z,15.73
2018-03-17T12:22:38.060Z,20.60
2018-03-17T12:25:06.502Z,17.47
2018-03-17T12:27:34.109Z,21.70
2018-03-17T12:30:01.730Z,15.63
2018-03-17T12:32:29.320Z,21.47
2018-03-17T12:34:56.885Z,20.50
2018-03-17T12:37:24.491Z,18.63
2018-03-17T12:39:52.144Z,23.47
2018-03-17T12:42:19.704Z,14.90
2018-03-17T12:44:47.256Z,18.07
2018-03-17T12:47:14.853Z,19.10
2018-03-17T12:49:42.413Z,18.20
2018-03-17T12:52:10.017Z,14.40
2018-03-17T12:54:37.560Z,18.20
2018-03-17T12:57:05.471Z,22.00
2018-03-17T12:59:33.019Z,19.20
2018-03-17T13:02:00.614Z,18.40
2018-03-17T13:04:29.011Z,19.43
2018-03-17T13:06:56.603Z,20.30
2018-03-17T13:09:25.123Z,23.83
2018-03-17T13:11:53.207Z,20.53
2018-03-17T13:14:21.513Z,16.70
2018-03-17T13:16:49.113Z,16.63
2018-03-17T13:19:28.684Z,19.57
2018-03-17T13:21:57.129Z,19.27
2018-03-17T13:24:25.166Z,15.67
2018-03-17T13:27:04.630Z,20.80
2018-03-17T13:29:32.480Z,19.30
2018-03-17T13:32:00.033Z,14.40
2018-03-17T13:34:28.437Z,16.30
2018-03-17T13:37:07.774Z,18.70
2018-03-17T13:39:35.380Z,15.80
2018-03-17T13:42:03.823Z,16.77
2018-03-17T13:44:31.409Z,14.10
2018-03-17T13:46:59.935Z,14.33
2018-03-17T13:49:28.176Z,16.70
2018-03-17T13:51:56.512Z,15.83
2018-03-17T13:54:24.099Z,13.57
2018-03-17T13:56:51.684Z,15.70
2018-03-17T13:59:19.293Z,16.07
2018-03-17T14:01:47.864Z,16.10
2018-03-17T14:04:17.081Z,18.33
2018-03-17T14:06:44.656Z,15.00
2018-03-17T14:09:12.251Z,13.50
2018-03-17T14:11:39.853Z,17.40
2018-03-17T14:14:07.402Z,18.07
2018-03-17T14:16:35.201Z,16.90
2018-03-17T14:19:05.820Z,14.00
2018-03-17T14:21:33.411Z,16.87
2018-03-17T14:24:00.963Z,14.20
2018-03-17T14:26:28.544Z,14.63
2018-03-17T14:28:56.082Z,13.67
2018-03-17T14:31:23.692Z,13.63
2018-03-17T14:33:51.564Z,15.57
2018-03-17T14:36:19.122Z,13.03
2018-03-17T14:38:46.720Z,13.73
2018-03-17T14:41:14.273Z,14.63
2018-03-17T14:43:41.868Z,11.67
2018-03-17T14:46:10.340Z,19.93
2018-03-17T14:48:37.927Z,12.90
2018-03-17T14:51:07.421Z,15.00
2018-03-17T14:53:35.015Z,14.77
2018-03-17T14:56:02.625Z,14.87
2018-03-17T14:58:30.169Z,16.77
2018-03-17T15:00:57.712Z,17.67
2018-03-17T15:03:25.308Z,14.33
2018-03-17T15:05:54.036Z,13.63
2018-03-17T15:08:21.640Z,13.07
2018-03-17T15:10:50.089Z,11.83
2018-03-17T15:13:17.716Z,13.60
2018-03-17T15:15:45.312Z,15.50
2018-03-17T15:18:13.009Z,15.67
2018-03-17T15:20:43.131Z,16.53
2018-03-17T15:23:10.740Z,18.30
2018-03-17T15:25:38.357Z,18.10
2018-03-17T15:28:05.920Z,17.87
2018-03-17T15:30:33.503Z,17.53
2018-03-17T15:33:01.157Z,14.47
2018-03-17T15:35:29.273Z,15.93
2018-03-17T15:37:56.864Z,15.50
2018-03-17T15:40:24.447Z,11.03
2018-03-17T15:42:53.113Z,13.00
2018-03-17T15:45:20.712Z,15.70
2018-03-17T15:47:48.314Z,14.90
2018-03-17T15:50:15.921Z,16.30
2018-03-17T15:52:43.481Z,18.17
2018-03-17T15:55:11.080Z,15.00
2018-03-17T15:57:38.644Z,16.93
2018-03-17T16:00:06.247Z,15.10
2018-03-17T16:02:34.347Z,14.27
2018-03-17T16:05:01.940Z,11.17
2018-03-17T16:07:29.506Z,16.90
2018-03-17T16:09:57.131Z,12.10
2018-03-17T16:12:24.697Z,23.70
2018-03-17T16:14:52.244Z,16.77
2018-03-17T16:17:19.841Z,13.40
2018-03-17T16:19:48.015Z,11.50
2018-03-17T16:22:15.609Z,15.37
2018-03-17T16:24:43.178Z,13.60
2018-03-17T16:27:11.669Z,15.10
2018-03-17T16:29:39.213Z,18.53
2018-03-17T16:32:07.188Z,20.83
2018-03-17T16:34:34.754Z,27.00
2018-03-17T16:37:02.352Z,33.63
2018-03-17T16:39:29.921Z,35.50
2018-03-17T16:41:58.311Z,30.57
2018-03-17T16:44:26.469Z,24.60
2018-03-17T16:46:54.069Z,22.73
2018-03-17T16:49:22.592Z,19.47
2018-03-17T16:51:50.159Z,29.90
2018-03-17T16:54:17.740Z,22.83
2018-03-17T16:56:45.352Z,25.57
2018-03-17T16:59:12.952Z,25.13
2018-03-17T17:01:40.537Z,28.43
2018-03-17T17:04:08.667Z,28.73
2018-03-17T17:06:36.634Z,22.03
2018-03-17T17:09:04.900Z,68.37
2018-03-17T17:11:32.457Z,32.40
2018-03-17T17:14:00.030Z,43.63
2018-03-17T17:16:27.624Z,60.70
2018-03-17T17:18:55.177Z,21.40
2018-03-17T17:21:22.781Z,336.33
2018-03-17T17:23:50.814Z,29.57
2018-03-17T17:26:18.442Z,25.10
2018-03-17T17:28:46.321Z,26.60
2018-03-17T17:31:14.664Z,23.43
2018-03-17T17:33:42.270Z,26.67
2018-03-17T17:36:10.222Z,22.30
2018-03-17T17:38:38.526Z,21.20
2018-03-17T17:41:06.972Z,27.67
2018-03-17T17:43:34.568Z,21.33
2018-03-17T17:46:02.206Z,26.20
2018-03-17T17:48:29.800Z,21.73
2018-03-17T17:50:57.356Z,21.50
2018-03-17T17:53:24.907Z,15.77
2018-03-17T17:55:52.510Z,18.17
2018-03-17T17:58:20.591Z,17.20
2018-03-17T18:00:48.498Z,26.73
2018-03-17T18:03:17.181Z,19.23
2018-03-17T18:05:45.874Z,19.67
2018-03-17T18:08:14.259Z,20.77
2018-03-17T18:10:42.057Z,13.90
2018-03-17T18:13:11.500Z,20.40
2018-03-17T18:15:40.252Z,23.17
2018-03-17T18:18:09.084Z,17.60
2018-03-17T18:20:38.560Z,16.57
2018-03-17T18:23:07.698Z,22.07
2018-03-17T18:25:35.797Z,26.67
2018-03-17T18:28:04.800Z,25.93
2018-03-17T18:30:33.714Z,29.00
2018-03-17T18:33:02.069Z,28.20
2018-03-17T18:35:30.332Z,22.30
2018-03-17T18:37:58.525Z,19.53
2018-03-17T18:40:27.185Z,26.63
2018-03-17T18:42:55.959Z,22.13
2018-03-17T18:45:24.105Z,27.13
2018-03-17T18:47:52.686Z,18.53
2018-03-17T18:50:20.649Z,17.83
2018-03-17T18:52:49.405Z,25.57
2018-03-17T18:55:17.578Z,17.63
2018-03-17T18:57:45.460Z,19.10
2018-03-17T19:00:13.052Z,17.77
2018-03-17T19:02:41.840Z,19.37
2018-03-17T19:05:09.463Z,16.70
2018-03-17T19:07:37.775Z,19.23
2018-03-17T19:10:05.603Z,26.63
2018-03-17T19:12:33.927Z,27.47
2018-03-17T19:15:02.035Z,21.97
2018-03-17T19:17:29.627Z,21.07
2018-03-17T19:19:57.535Z,23.57
2018-03-17T19:22:25.419Z,23.33
2018-03-17T19:24:53.051Z,22.20
2018-03-17T19:27:21.420Z,23.70
2018-03-17T19:29:49.149Z,20.13
2018-03-17T19:32:17.149Z,21.50
2018-03-17T19:34:44.829Z,20.53
2018-03-17T19:37:15.727Z,14.30
2018-03-17T19:39:43.312Z,18.70
2018-03-17T19:42:10.873Z,16.83
2018-03-17T19:44:39.763Z,18.27
2018-03-17T19:47:08.155Z,19.93
2018-03-17T19:49:35.983Z,16.90
2018-03-17T19:52:03.965Z,17.47
2018-03-17T19:54:32.458Z,25.00
2018-03-17T19:57:00.510Z,21.93
2018-03-17T19:59:29.475Z,19.03
2018-03-17T20:01:57.661Z,21.90
2018-03-17T20:04:25.462Z,21.93
2018-03-17T20:06:53.021Z,21.23
2018-03-17T20:09:20.778Z,17.33
2018-03-17T20:11:48.885Z,18.93
2018-03-17T20:14:16.451Z,17.30
2018-03-17T20:16:44.532Z,19.60
2018-03-17T20:19:12.649Z,16.47
2018-03-17T20:21:40.233Z,16.00
2018-03-17T20:24:07.842Z,14.30
2018-03-17T20:26:36.009Z,16.07
2018-03-17T20:29:04.784Z,19.37
2018-03-17T20:31:32.849Z,14.67
2018-03-17T20:34:00.445Z,14.83
2018-03-17T20:36:28.507Z,14.83
2018-03-17T20:38:56.126Z,16.90
2018-03-17T20:41:24.989Z,14.03
2018-03-17T20:43:53.760Z,17.33
2018-03-17T20:46:21.306Z,11.73
2018-03-17T20:48:49.604Z,17.87
2018-03-17T20:51:17.214Z,13.33
2018-03-17T20:53:44.768Z,9.90
2018-03-17T20:56:12.332Z,15.30
2018-03-17T20:58:39.944Z,18.43
2018-03-17T21:01:08.733Z,12.07
2018-03-17T21:03:36.332Z,16.40
2018-03-17T21:06:03.875Z,14.40
2018-03-17T21:08:32.438Z,10.77
2018-03-17T21:11:00.630Z,18.17
2018-03-17T21:13:29.595Z,31.13
2018-03-17T21:15:57.185Z,18.53
2018-03-17T21:18:24.764Z,19.57
2018-03-17T21:20:52.625Z,25.83
2018-03-17T21:23:20.169Z,28.70
2018-03-17T21:25:48.052Z,22.17
2018-03-17T21:28:16.139Z,22.70
2018-03-17T21:30:43.731Z,19.53
2018-03-17T21:33:11.276Z,23.53
2018-03-17T21:35:39.577Z,23.00
2018-03-17T21:38:07.116Z,24.03
2018-03-17T21:40:34.654Z,34.43
2018-03-17T21:43:02.244Z,23.13
2018-03-17T21:45:29.804Z,25.63
2018-03-17T21:47:57.396Z,26.83
2018-03-17T21:50:25.005Z,25.93
2018-03-17T21:52:52.547Z,22.20
2018-03-17T21:55:20.135Z,18.73
2018-03-17T21:57:47.695Z,18.93
2018-03-17T22:00:15.795Z,18.73
2018-03-17T22:02:48.255Z,24.00
2018-03-17T22:05:15.854Z,19.13
2018-03-17T22:07:43.449Z,18.27
2018-03-17T22:10:11.383Z,20.07
2018-03-17T22:12:39.816Z,23.60
2018-03-17T22:15:07.915Z,13.77
2018-03-17T22:17:35.474Z,17.53
2018-03-17T22:20:03.072Z,20.97
2018-03-17T22:22:30.667Z,27.23
2018-03-17T22:24:58.214Z,40.83
2018-03-17T22:27:25.765Z,24.73
2018-03-17T22:29:53.359Z,19.40
2018-03-17T22:32:20.910Z,17.40
2018-03-17T22:34:48.455Z,20.57
2018-03-17T22:37:16.044Z,25.63
2018-03-17T22:39:43.593Z,22.20
2018-03-17T22:42:11.195Z,17.20
2018-03-17T22:44:38.752Z,21.20
2018-03-17T22:47:07.152Z,20.37
2018-03-17T22:49:34.761Z,20.37
2018-03-17T22:52:03.284Z,17.97
2018-03-17T22:54:30.873Z,26.70
2018-03-17T22:56:58.426Z,19.07
2018-03-17T22:59:26.021Z,24.50
2018-03-17T23:01:55.833Z,22.00
2018-03-17T23:04:23.514Z,20.83
2018-03-17T23:06:51.055Z,23.63
2018-03-17T23:09:18.657Z,25.47
2018-03-17T23:11:47.219Z,17.43
2018-03-17T23:14:14.759Z,12.17
2018-03-17T23:16:42.374Z,27.63
2018-03-17T23:19:09.924Z,18.53
2018-03-17T23:21:37.524Z,16.20
2018-03-17T23:24:05.979Z,17.30
2018-03-17T23:26:33.577Z,18.40
2018-03-17T23:29:01.160Z,18.63
2018-03-17T23:31:30.723Z,14.73
2018-03-17T23:33:58.788Z,21.20
2018-03-17T23:36:27.329Z,15.73
2018-03-17T23:38:55.126Z,15.77
2018-03-17T23:41:22.707Z,19.23
2018-03-17T23:43:50.302Z,16.30
2018-03-17T23:46:17.868Z,16.37
2018-03-17T23:48:45.484Z,18.30
2018-03-17T23:51:13.147Z,19.30
2018-03-17T23:53:40.750Z,22.73
2018-03-17T23:56:08.559Z,13.33
2018-03-17T23:58:36.131Z,16.90
